Ketchikan, Alaska
Current Conditions -  °F | °C
As of 11:53 AM on Wednesday 26 Nov 2014 (Local Time) from PAKT Reporting Station
Few Clouds Few Clouds  
Wind Chill: 34°   Ceiling: Unl
Heat Index: 40°   Visibility: 10mi
Dew Point: 34°   Wind: 8mph
Humidity: 79%   Direction: 320°NW
Pressure: 30.03"   Gusts: NA
Location:  55.35°N, 131.69°W
Report Text: PAKT 262053Z 32007KT 10SM FEW002 04/01 A3003 RMK AO2 SLP169 T00440011 58021
Loading
Personal Weather Stations






























Interactive Weather Map New forecast layout! Learn more

10-Day Weather Forecast

Advertisements
Track Severe Weather on mobile